Time;durP1;ratioP1;P1;durP2;ratioP2;P2;SDS_P1;SDS_P2;PMS_P1;PMS_P2;Temp;Humidity;BMP_temperature;BMP_pressure;BME280_temperature;BME280_humidity;BME280_pressure;Samples;Min_cycle;Max_cycle;Signal;HPM_P1;HPM_P2
2022/11/28 00:01:05;;;;;;;;;;;;;;;;;;4963269;28;19988;-78
2022/11/28 00:03:30;;;;;;;;;;;;;;;;;;4944313;29;19950;-78
2022/11/28 00:05:56;;;;;;;;;;;;;;;;;;4962025;29;19915;-78
2022/11/28 00:08:21;;;;;;;;;;;;;;;;;;4944483;29;19950;-78
2022/11/28 00:10:46;;;;;;;;;;;;;;;;;;4961456;29;19922;-78
2022/11/28 00:13:12;;;;;;;;;;;;;;;;;;4945408;29;19938;-78
2022/11/28 00:15:37;;;;;;;;;;;;;;;;;;4961195;29;19915;-78
2022/11/28 00:18:03;;;;;;;;;;;;;;;;;;4950470;29;20378;-78
2022/11/28 00:20:28;;;;;;;;;;;;;;;;;;4957136;29;20412;-78
2022/11/28 00:22:53;;;;;;;;;;;;;;;;;;4955121;29;19922;-78
2022/11/28 00:25:19;;;;;;;;;;;;;;;;;;4956965;29;19914;-78
2022/11/28 00:27:44;;;;;;;;;;;;;;;;;;4957347;29;20371;-79
2022/11/28 00:30:10;;;;;;;;;;;;;;;;;;4956388;29;19918;-78
2022/11/28 00:32:40;;;;;;;;;;;;;;;;;;4955614;29;21441;-79
2022/11/28 00:35:05;;;;;;;;;;;;;;;;;;4958390;29;19985;-78
2022/11/28 00:37:31;;;;;;;;;;;;;;;;;;4957282;28;19914;-78
2022/11/28 00:39:56;;;;;;;;;;;;;;;;;;4941285;29;19922;-77
2022/11/28 00:42:22;;;;;;;;;;;;;;;;;;4942926;29;19915;-78
2022/11/28 00:44:47;;;;;;;;;;;;;;;;;;4960661;29;19918;-78
2022/11/28 00:47:12;;;;;;;;;;;;;;;;;;4961268;29;19921;-78
2022/11/28 00:49:38;;;;;;;;;;;;;;;;;;4961842;29;19914;-78
2022/11/28 00:52:03;;;;;;;;;;;;;;;;;;4960732;29;19982;-77
2022/11/28 00:54:28;;;;;;;;;;;;;;;;;;4959251;29;19925;-78
2022/11/28 00:56:54;;;;;;;;;;;;;;;;;;4962372;29;20009;-77
2022/11/28 00:59:19;;;;;;;;;;;;;;;;;;4962650;29;19914;-78
2022/11/28 01:01:44;;;;;;;;;;;;;;;;;;4961404;29;20363;-78
2022/11/28 01:04:10;;;;;;;;;;;;;;;;;;4956997;29;19915;-78
2022/11/28 01:06:35;;;;;;;;;;;;;;;;;;4956251;29;19969;-78
2022/11/28 01:09:01;;;;;;;;;;;;;;;;;;4953350;29;20371;-78
2022/11/28 01:11:26;;;;;;;;;;;;;;;;;;4938765;29;19915;-77
2022/11/28 01:13:51;;;;;;;;;;;;;;;;;;4938318;29;19915;-78
2022/11/28 01:16:17;;;;;;;;;;;;;;;;;;4939253;29;20397;-78
2022/11/28 01:18:42;;;;;;;;;;;;;;;;;;4939320;29;19915;-78
2022/11/28 01:21:07;;;;;;;;;;;;;;;;;;4938573;29;20299;-78
2022/11/28 01:23:33;;;;;;;;;;;;;;;;;;4940993;29;20396;-78
2022/11/28 01:25:58;;;;;;;;;;;;;;;;;;4940708;29;19934;-78
2022/11/28 01:28:24;;;;;;;;;;;;;;;;;;4941908;29;20438;-78
2022/11/28 01:30:49;;;;;;;;;;;;;;;;;;4941140;29;19914;-78
2022/11/28 01:33:15;;;;;;;;;;;;;;;;;;4938606;29;19916;-78
2022/11/28 01:35:40;;;;;;;;;;;;;;;;;;4938560;29;19958;-79
2022/11/28 01:38:06;;;;;;;;;;;;;;;;;;4937161;29;20424;-78
2022/11/28 01:40:31;;;;;;;;;;;;;;;;;;4935944;29;19918;-78
2022/11/28 01:42:56;;;;;;;;;;;;;;;;;;4955114;28;20433;-78
2022/11/28 01:45:22;;;;;;;;;;;;;;;;;;4935616;29;19918;-78
2022/11/28 01:47:47;;;;;;;;;;;;;;;;;;4936925;29;19954;-78
2022/11/28 01:50:12;;;;;;;;;;;;;;;;;;4937058;29;19915;-78
2022/11/28 01:52:38;;;;;;;;;;;;;;;;;;4939496;29;19914;-78
2022/11/28 01:55:03;;;;;;;;;;;;;;;;;;4923930;29;19914;-78
2022/11/28 01:57:29;;;;;;;;;;;;;;;;;;4940629;29;19922;-78
2022/11/28 01:59:54;;;;;;;;;;;;;;;;;;4955623;29;19919;-78
2022/11/28 02:02:19;;;;;;;;;;;;;;;;;;4959364;29;20381;-78
2022/11/28 02:04:45;;;;;;;;;;;;;;;;;;4959355;29;19921;-78
2022/11/28 02:07:10;;;;;;;;;;;;;;;;;;4960688;29;19915;-79
2022/11/28 02:09:35;;;;;;;;;;;;;;;;;;5061333;23;20919;-83
2022/11/28 02:12:01;;;;;;;;;;;;;;;;;;4966229;28;19902;-83
2022/11/28 02:14:27;;;;;;;;;;;;;;;;;;4966176;28;19915;-84
2022/11/28 02:16:52;;;;;;;;;;;;;;;;;;4974414;28;19919;-83
2022/11/28 02:19:18;;;;;;;;;;;;;;;;;;4962540;29;19914;-83
2022/11/28 02:21:43;;;;;;;;;;;;;;;;;;4961421;29;19930;-84
2022/11/28 02:24:09;;;;;;;;;;;;;;;;;;4962033;29;19899;-83
2022/11/28 02:26:34;;;;;;;;;;;;;;;;;;4962904;28;19923;-83
2022/11/28 02:28:59;;;;;;;;;;;;;;;;;;4961811;29;19899;-84
2022/11/28 02:31:28;;;;;;;;;;;;;;;;;;4961253;28;19922;-83
2022/11/28 02:33:53;;;;;;;;;;;;;;;;;;4958463;29;19926;-82
2022/11/28 02:36:18;;;;;;;;;;;;;;;;;;4958648;29;19919;-84
2022/11/28 02:38:44;;;;;;;;;;;;;;;;;;4959333;29;19899;-84
2022/11/28 02:41:10;;;;;;;;;;;;;;;;;;4975811;29;19981;-84
2022/11/28 02:43:35;;;;;;;;;;;;;;;;;;4973646;28;19923;-83
2022/11/28 02:46:01;;;;;;;;;;;;;;;;;;4981414;29;19903;-83
2022/11/28 02:48:27;;;;;;;;;;;;;;;;;;4950161;29;19903;-84
2022/11/28 02:50:52;;;;;;;;;;;;;;;;;;4981940;28;19921;-83
2022/11/28 02:53:18;;;;;;;;;;;;;;;;;;4981308;28;19898;-84
2022/11/28 02:55:43;;;;;;;;;;;;;;;;;;4965100;29;19898;-83
2022/11/28 02:58:09;;;;;;;;;;;;;;;;;;4980960;28;19941;-83
2022/11/28 03:00:34;;;;;;;;;;;;;;;;;;4943939;28;20005;-82
2022/11/28 03:03:00;;;;;;;;;;;;;;;;;;4960764;29;19922;-81
2022/11/28 03:05:25;;;;;;;;;;;;;;;;;;4979420;29;19942;-84
2022/11/28 03:07:51;;;;;;;;;;;;;;;;;;4980574;29;19926;-83
2022/11/28 03:10:16;;;;;;;;;;;;;;;;;;4977129;28;19924;-83
2022/11/28 03:12:42;;;;;;;;;;;;;;;;;;4971722;29;20429;-83
2022/11/28 03:15:07;;;;;;;;;;;;;;;;;;4958798;29;19915;-83
2022/11/28 03:17:33;;;;;;;;;;;;;;;;;;4964440;29;19925;-83
2022/11/28 03:19:58;;;;;;;;;;;;;;;;;;4980066;28;19922;-82
2022/11/28 03:22:24;;;;;;;;;;;;;;;;;;4980728;29;19958;-85
2022/11/28 03:24:49;;;;;;;;;;;;;;;;;;4981103;28;19910;-83
2022/11/28 03:27:15;;;;;;;;;;;;;;;;;;4981251;28;19968;-83
2022/11/28 03:29:40;;;;;;;;;;;;;;;;;;4963765;29;19905;-83
2022/11/28 03:32:06;;;;;;;;;;;;;;;;;;4979985;28;19898;-82
2022/11/28 03:34:31;;;;;;;;;;;;;;;;;;4979780;29;19934;-83
2022/11/28 03:36:57;;;;;;;;;;;;;;;;;;4979136;29;19978;-83
2022/11/28 03:39:23;;;;;;;;;;;;;;;;;;4961889;29;19914;-83
2022/11/28 03:41:48;;;;;;;;;;;;;;;;;;4977754;29;19914;-83
2022/11/28 03:44:14;;;;;;;;;;;;;;;;;;4977257;28;19930;-82
2022/11/28 03:46:39;;;;;;;;;;;;;;;;;;4975894;29;19922;-84
2022/11/28 03:49:06;;;;;;;;;;;;;;;;;;4977153;28;19914;-83
2022/11/28 03:51:31;;;;;;;;;;;;;;;;;;4961118;29;19915;-83
2022/11/28 03:53:57;;;;;;;;;;;;;;;;;;4978304;29;19986;-82
2022/11/28 03:56:22;;;;;;;;;;;;;;;;;;4962083;29;19980;-84
2022/11/28 03:58:48;;;;;;;;;;;;;;;;;;4978261;28;19922;-83
2022/11/28 04:01:16;;;;;;;;;;;;;;;;;;4978265;28;19970;-83
2022/11/28 04:03:41;;;;;;;;;;;;;;;;;;4977698;29;19914;-82
2022/11/28 04:06:07;;;;;;;;;;;;;;;;;;4978945;29;19914;-84
2022/11/28 04:08:32;;;;;;;;;;;;;;;;;;4980347;28;19898;-83
2022/11/28 04:10:58;;;;;;;;;;;;;;;;;;4979030;28;19949;-83
2022/11/28 04:13:24;;;;;;;;;;;;;;;;;;4971880;28;19938;-82
2022/11/28 04:15:49;;;;;;;;;;;;;;;;;;4955857;29;19922;-83
2022/11/28 04:18:15;;;;;;;;;;;;;;;;;;4974220;28;19898;-83
2022/11/28 04:20:40;;;;;;;;;;;;;;;;;;4976641;29;19959;-83
2022/11/28 04:23:06;;;;;;;;;;;;;;;;;;4978380;29;20062;-83
2022/11/28 04:25:32;;;;;;;;;;;;;;;;;;4979116;28;19898;-84
2022/11/28 04:27:57;;;;;;;;;;;;;;;;;;4980121;28;19925;-83
2022/11/28 04:30:23;;;;;;;;;;;;;;;;;;4963438;28;19937;-84
2022/11/28 04:32:49;;;;;;;;;;;;;;;;;;4979430;28;19938;-83
2022/11/28 04:35:14;;;;;;;;;;;;;;;;;;4977723;29;19914;-82
2022/11/28 04:37:40;;;;;;;;;;;;;;;;;;4971937;29;19915;-83
2022/11/28 04:40:05;;;;;;;;;;;;;;;;;;4972217;29;19903;-83
2022/11/28 04:42:31;;;;;;;;;;;;;;;;;;4973197;29;19906;-83
2022/11/28 04:44:56;;;;;;;;;;;;;;;;;;4959188;28;19945;-84
2022/11/28 04:47:22;;;;;;;;;;;;;;;;;;4973691;29;19915;-82
2022/11/28 04:49:47;;;;;;;;;;;;;;;;;;4956375;29;19905;-83
2022/11/28 04:52:13;;;;;;;;;;;;;;;;;;4957380;29;19978;-83
2022/11/28 04:54:38;;;;;;;;;;;;;;;;;;4973726;29;19998;-82
2022/11/28 04:57:04;;;;;;;;;;;;;;;;;;4973762;29;19898;-83
2022/11/28 04:59:30;;;;;;;;;;;;;;;;;;4975881;28;19997;-82
2022/11/28 05:01:57;;;;;;;;;;;;;;;;;;4974905;29;19942;-82
2022/11/28 05:04:22;;;;;;;;;;;;;;;;;;4960164;29;19933;-83
2022/11/28 05:06:48;;;;;;;;;;;;;;;;;;4976263;29;19914;-83
2022/11/28 05:09:13;;;;;;;;;;;;;;;;;;4959998;29;19919;-83
2022/11/28 05:11:39;;;;;;;;;;;;;;;;;;4977025;29;19918;-83
2022/11/28 05:14:04;;;;;;;;;;;;;;;;;;4978078;29;19930;-83
2022/11/28 05:16:30;;;;;;;;;;;;;;;;;;4977128;29;19909;-83
2022/11/28 05:18:56;;;;;;;;;;;;;;;;;;4961048;29;19942;-83
2022/11/28 05:21:21;;;;;;;;;;;;;;;;;;4976030;29;19921;-82
2022/11/28 05:23:47;;;;;;;;;;;;;;;;;;4972258;28;20345;-82
2022/11/28 05:26:13;;;;;;;;;;;;;;;;;;4976319;29;19910;-82
2022/11/28 05:28:38;;;;;;;;;;;;;;;;;;4982461;29;19905;-84
2022/11/28 05:31:04;;;;;;;;;;;;;;;;;;4981546;29;19899;-83
2022/11/28 05:33:29;;;;;;;;;;;;;;;;;;4966313;28;19899;-83
2022/11/28 05:35:55;;;;;;;;;;;;;;;;;;4982818;28;19946;-82
2022/11/28 05:38:20;;;;;;;;;;;;;;;;;;4982242;29;19911;-83
2022/11/28 05:40:46;;;;;;;;;;;;;;;;;;4983151;28;19982;-83
2022/11/28 05:43:12;;;;;;;;;;;;;;;;;;4982202;28;19914;-82
2022/11/28 05:45:37;;;;;;;;;;;;;;;;;;4980760;29;20370;-82
2022/11/28 05:48:03;;;;;;;;;;;;;;;;;;4981778;29;19914;-82
2022/11/28 05:50:28;;;;;;;;;;;;;;;;;;4966347;29;19902;-82
2022/11/28 05:52:54;;;;;;;;;;;;;;;;;;4966071;28;19902;-81
2022/11/28 05:55:20;;;;;;;;;;;;;;;;;;4981633;29;19898;-84
2022/11/28 05:57:45;;;;;;;;;;;;;;;;;;4981689;28;19906;-82
2022/11/28 06:00:13;;;;;;;;;;;;;;;;;;4981787;28;19929;-83
2022/11/28 06:02:39;;;;;;;;;;;;;;;;;;4982677;28;19906;-83
2022/11/28 06:05:04;;;;;;;;;;;;;;;;;;4966259;28;19942;-85
2022/11/28 06:07:30;;;;;;;;;;;;;;;;;;4966279;28;19898;-82
2022/11/28 06:09:58;;;;;;;;;;;;;;;;;;4980820;29;19925;-82
2022/11/28 06:12:23;;;;;;;;;;;;;;;;;;4964976;29;19925;-82
2022/11/28 06:14:49;;;;;;;;;;;;;;;;;;4981203;29;19915;-83
2022/11/28 06:17:14;;;;;;;;;;;;;;;;;;4980789;28;19915;-82
2022/11/28 06:19:40;;;;;;;;;;;;;;;;;;4981626;28;19903;-83
2022/11/28 06:22:05;;;;;;;;;;;;;;;;;;4964898;28;19906;-83
2022/11/28 06:24:31;;;;;;;;;;;;;;;;;;4981584;28;19914;-82
2022/11/28 06:26:56;;;;;;;;;;;;;;;;;;4981967;28;19918;-83
2022/11/28 06:29:22;;;;;;;;;;;;;;;;;;4965831;28;19934;-83
2022/11/28 06:31:48;;;;;;;;;;;;;;;;;;4982124;28;19918;-84
2022/11/28 06:34:13;;;;;;;;;;;;;;;;;;4981952;28;19915;-84
2022/11/28 06:36:39;;;;;;;;;;;;;;;;;;4980121;28;20052;-83
2022/11/28 06:39:05;;;;;;;;;;;;;;;;;;4979512;28;19902;-83
2022/11/28 06:41:31;;;;;;;;;;;;;;;;;;4981139;29;19926;-82
2022/11/28 06:43:58;;;;;;;;;;;;;;;;;;4965602;28;19907;-84
2022/11/28 06:46:24;;;;;;;;;;;;;;;;;;4964575;29;19922;-83
2022/11/28 06:48:49;;;;;;;;;;;;;;;;;;4965981;28;20026;-83
2022/11/28 06:51:15;;;;;;;;;;;;;;;;;;4947737;29;20338;-83
2022/11/28 06:53:41;;;;;;;;;;;;;;;;;;4961024;29;19921;-82
2022/11/28 06:56:06;;;;;;;;;;;;;;;;;;4979399;28;19946;-82
2022/11/28 06:58:32;;;;;;;;;;;;;;;;;;4961277;29;19914;-83
2022/11/28 07:00:57;;;;;;;;;;;;;;;;;;4978528;28;19918;-82
2022/11/28 07:03:23;;;;;;;;;;;;;;;;;;4977345;29;20013;-83
2022/11/28 07:05:48;;;;;;;;;;;;;;;;;;4979256;28;20385;-82
2022/11/28 07:08:14;;;;;;;;;;;;;;;;;;4960595;29;19918;-83
2022/11/28 07:10:39;;;;;;;;;;;;;;;;;;4946913;29;19919;-82
2022/11/28 07:13:08;;;;;;;;;;;;;;;;;;4979768;29;19898;-82
2022/11/28 07:15:33;;;;;;;;;;;;;;;;;;4980487;28;19914;-83
2022/11/28 07:17:58;;;;;;;;;;;;;;;;;;4979809;29;20004;-83
2022/11/28 07:20:24;;;;;;;;;;;;;;;;;;4980028;29;19967;-85
2022/11/28 07:22:50;;;;;;;;;;;;;;;;;;4979885;29;19899;-83
2022/11/28 07:25:15;;;;;;;;;;;;;;;;;;4980365;28;19970;-86
2022/11/28 07:27:41;;;;;;;;;;;;;;;;;;4964745;28;19909;-84
2022/11/28 07:30:07;;;;;;;;;;;;;;;;;;4963555;29;19922;-84
2022/11/28 07:32:33;;;;;;;;;;;;;;;;;;4996665;28;19918;-85
2022/11/28 07:34:59;;;;;;;;;;;;;;;;;;4962131;29;19905;-83
2022/11/28 07:37:24;;;;;;;;;;;;;;;;;;4977200;29;19922;-83
2022/11/28 07:39:50;;;;;;;;;;;;;;;;;;4978143;29;19911;-87
2022/11/28 07:42:15;;;;;;;;;;;;;;;;;;4980785;28;19937;-83
2022/11/28 07:44:41;;;;;;;;;;;;;;;;;;4980736;28;19902;-84
2022/11/28 07:47:07;;;;;;;;;;;;;;;;;;4978033;28;19941;-82
2022/11/28 07:49:32;;;;;;;;;;;;;;;;;;4960070;29;19899;-85
2022/11/28 07:51:58;;;;;;;;;;;;;;;;;;4979340;28;19898;-84
2022/11/28 07:54:23;;;;;;;;;;;;;;;;;;4977731;29;19945;-87
2022/11/28 07:56:49;;;;;;;;;;;;;;;;;;4948121;29;19978;-85
2022/11/28 07:59:15;;;;;;;;;;;;;;;;;;4976990;29;19903;-87
2022/11/28 08:01:40;;;;;;;;;;;;;;;;;;4962672;29;19934;-83
2022/11/28 08:04:06;;;;;;;;;;;;;;;;;;4978561;29;19914;-84
2022/11/28 08:06:31;;;;;;;;;;;;;;;;;;4962058;29;19965;-84
2022/11/28 08:08:57;;;;;;;;;;;;;;;;;;4978062;29;19946;-84
2022/11/28 08:11:22;;;;;;;;;;;;;;;;;;4936666;23;19927;-79
2022/11/28 08:13:47;;;;;;;;;;;;;;;;;;4932044;29;19923;-79
2022/11/28 08:16:13;;;;;;;;;;;;;;;;;;4932463;29;20009;-79
2022/11/28 08:18:38;;;;;;;;;;;;;;;;;;4919267;29;19937;-79
2022/11/28 08:21:04;;;;;;;;;;;;;;;;;;4937625;29;19916;-79
2022/11/28 08:23:29;;;;;;;;;;;;;;;;;;4921603;29;19915;-79
2022/11/28 08:25:55;;;;;;;;;;;;;;;;;;4921197;29;19915;-79
2022/11/28 08:28:24;;;;;;;;;;;;;;;;;;4922825;29;19922;-79
2022/11/28 08:30:49;;;;;;;;;;;;;;;;;;4920941;29;19974;-79
2022/11/28 08:33:14;;;;;;;;;;;;;;;;;;4919718;29;20387;-79
2022/11/28 08:35:40;;;;;;;;;;;;;;;;;;4920403;29;19946;-79
2022/11/28 08:38:06;;;;;;;;;;;;;;;;;;4935719;29;20272;-79
2022/11/28 08:40:31;;;;;;;;;;;;;;;;;;4923193;29;19919;-78
2022/11/28 08:42:56;;;;;;;;;;;;;;;;;;4928499;29;19914;-79
2022/11/28 08:45:22;;;;;;;;;;;;;;;;;;4942018;29;19915;-79
2022/11/28 08:47:47;;;;;;;;;;;;;;;;;;4937177;29;19925;-79
2022/11/28 08:50:13;;;;;;;;;;;;;;;;;;4942827;29;20419;-80
2022/11/28 08:52:38;;;;;;;;;;;;;;;;;;4939593;29;20267;-79
2022/11/28 08:55:04;;;;;;;;;;;;;;;;;;4924520;29;19915;-79
2022/11/28 08:57:29;;;;;;;;;;;;;;;;;;4939882;29;19915;-79
2022/11/28 08:59:54;;;;;;;;;;;;;;;;;;4937122;29;20442;-79
2022/11/28 09:02:20;;;;;;;;;;;;;;;;;;4937075;29;19922;-79
2022/11/28 09:04:45;;;;;;;;;;;;;;;;;;4929989;29;19943;-79
2022/11/28 09:07:11;;;;;;;;;;;;;;;;;;4921544;29;19922;-79
2022/11/28 09:09:36;;;;;;;;;;;;;;;;;;4919832;29;19922;-78
2022/11/28 09:12:02;;;;;;;;;;;;;;;;;;4925107;29;20423;-79
2022/11/28 09:14:27;;;;;;;;;;;;;;;;;;4920826;29;19920;-79
2022/11/28 09:16:53;;;;;;;;;;;;;;;;;;4921153;29;20342;-79
2022/11/28 09:19:18;;;;;;;;;;;;;;;;;;4921011;29;19973;-79
2022/11/28 09:21:44;;;;;;;;;;;;;;;;;;4918766;29;20068;-78
2022/11/28 09:24:10;;;;;;;;;;;;;;;;;;4933098;29;20339;-78
2022/11/28 09:26:35;;;;;;;;;;;;;;;;;;4934480;29;19918;-79
2022/11/28 09:29:01;;;;;;;;;;;;;;;;;;4918897;29;20014;-78
2022/11/28 09:31:26;;;;;;;;;;;;;;;;;;4916536;29;19925;-78
2022/11/28 09:33:52;;;;;;;;;;;;;;;;;;4915280;29;19921;-79
2022/11/28 09:36:17;;;;;;;;;;;;;;;;;;4917447;29;19915;-79
2022/11/28 09:38:43;;;;;;;;;;;;;;;;;;4926073;29;19914;-79
2022/11/28 09:41:08;;;;;;;;;;;;;;;;;;4937493;29;19918;-78
2022/11/28 09:43:33;;;;;;;;;;;;;;;;;;4937676;29;19934;-78
2022/11/28 09:45:59;;;;;;;;;;;;;;;;;;4924475;29;19922;-78
2022/11/28 09:48:24;;;;;;;;;;;;;;;;;;4938566;29;20310;-78
2022/11/28 09:50:50;;;;;;;;;;;;;;;;;;4936950;29;19922;-78
2022/11/28 09:53:15;;;;;;;;;;;;;;;;;;4931852;29;19967;-78
2022/11/28 09:55:41;;;;;;;;;;;;;;;;;;4917801;29;19950;-78
2022/11/28 09:58:06;;;;;;;;;;;;;;;;;;4918536;29;19926;-78
2022/11/28 10:00:31;;;;;;;;;;;;;;;;;;4917819;29;20346;-78
2022/11/28 10:02:57;;;;;;;;;;;;;;;;;;4916639;29;19915;-79
2022/11/28 10:05:23;;;;;;;;;;;;;;;;;;4916581;29;19954;-78
2022/11/28 10:07:48;;;;;;;;;;;;;;;;;;4918722;29;19926;-78
2022/11/28 10:10:14;;;;;;;;;;;;;;;;;;4918056;29;20413;-80
2022/11/28 10:12:39;;;;;;;;;;;;;;;;;;4919065;29;20413;-78
2022/11/28 10:15:04;;;;;;;;;;;;;;;;;;4935380;29;20450;-80
2022/11/28 10:17:30;;;;;;;;;;;;;;;;;;4938351;29;19970;-79
2022/11/28 10:19:56;;;;;;;;;;;;;;;;;;4920504;29;20005;-79
2022/11/28 10:22:21;;;;;;;;;;;;;;;;;;4922029;29;19915;-80
2022/11/28 10:24:47;;;;;;;;;;;;;;;;;;4924170;29;19915;-80
2022/11/28 10:27:12;;;;;;;;;;;;;;;;;;4941651;29;19942;-81
2022/11/28 10:29:38;;;;;;;;;;;;;;;;;;4945841;29;19919;-80
2022/11/28 10:32:03;;;;;;;;;;;;;;;;;;4945034;29;19914;-81
2022/11/28 10:34:29;;;;;;;;;;;;;;;;;;4946547;29;19911;-81
2022/11/28 10:36:54;;;;;;;;;;;;;;;;;;4945822;29;19915;-81
2022/11/28 10:39:20;;;;;;;;;;;;;;;;;;4946670;29;19915;-82
2022/11/28 10:42:10;;;;;;;;;;;;;;;;;;4929062;29;19922;-82
2022/11/28 10:44:31;;;;;;;;;;;;;;;;;;4942428;29;20412;-82
2022/11/28 10:46:56;;;;;;;;;;;;;;;;;;4946211;29;19954;-81
2022/11/28 10:49:22;;;;;;;;;;;;;;;;;;4945028;29;19915;-81
2022/11/28 10:51:47;;;;;;;;;;;;;;;;;;4947851;29;19926;-82
2022/11/28 10:54:13;;;;;;;;;;;;;;;;;;4945142;29;19915;-82
2022/11/28 10:56:38;;;;;;;;;;;;;;;;;;4944457;29;19919;-81
2022/11/28 10:59:04;;;;;;;;;;;;;;;;;;4939911;29;19911;-81
2022/11/28 11:01:29;;;;;;;;;;;;;;;;;;4924856;29;19975;-81
2022/11/28 11:03:54;;;;;;;;;;;;;;;;;;4933597;29;19961;-81
2022/11/28 11:06:20;;;;;;;;;;;;;;;;;;4932633;29;20017;-80
2022/11/28 11:08:45;;;;;;;;;;;;;;;;;;4930017;29;19922;-80
2022/11/28 11:11:11;;;;;;;;;;;;;;;;;;4933348;29;19930;-81
2022/11/28 11:13:36;;;;;;;;;;;;;;;;;;4930463;29;20294;-81
2022/11/28 11:16:01;;;;;;;;;;;;;;;;;;4929757;29;19923;-81
2022/11/28 11:18:27;;;;;;;;;;;;;;;;;;4924330;29;19916;-80
2022/11/28 11:20:52;;;;;;;;;;;;;;;;;;4924679;29;20409;-81
2022/11/28 11:23:18;;;;;;;;;;;;;;;;;;4923563;29;19919;-81
2022/11/28 11:25:43;;;;;;;;;;;;;;;;;;4923868;29;20411;-82
2022/11/28 11:28:09;;;;;;;;;;;;;;;;;;4923263;29;19966;-81
2022/11/28 11:30:34;;;;;;;;;;;;;;;;;;4929635;29;19958;-80
2022/11/28 11:33:00;;;;;;;;;;;;;;;;;;4939351;29;20366;-82
2022/11/28 11:35:25;;;;;;;;;;;;;;;;;;4941090;29;20005;-84
2022/11/28 11:37:51;;;;;;;;;;;;;;;;;;4950159;29;19915;-84
2022/11/28 11:40:17;;;;;;;;;;;;;;;;;;4951920;29;19923;-83
2022/11/28 11:42:42;;;;;;;;;;;;;;;;;;4951674;29;19914;-84
2022/11/28 11:45:08;;;;;;;;;;;;;;;;;;4952282;29;19949;-83
2022/11/28 11:47:33;;;;;;;;;;;;;;;;;;4951381;29;19954;-85
2022/11/28 11:49:59;;;;;;;;;;;;;;;;;;4952321;29;20401;-83
2022/11/28 11:52:24;;;;;;;;;;;;;;;;;;4953545;29;19922;-84
2022/11/28 11:54:50;;;;;;;;;;;;;;;;;;4935055;29;20446;-82
2022/11/28 11:57:15;;;;;;;;;;;;;;;;;;4951983;29;20286;-82
2022/11/28 11:59:41;;;;;;;;;;;;;;;;;;4949400;29;19915;-82
2022/11/28 12:02:06;;;;;;;;;;;;;;;;;;4912570;29;19918;-81
2022/11/28 12:04:32;;;;;;;;;;;;;;;;;;4936726;29;19914;-78
2022/11/28 12:06:57;;;;;;;;;;;;;;;;;;4936486;29;20379;-80
2022/11/28 12:09:23;;;;;;;;;;;;;;;;;;4939142;29;19942;-80
2022/11/28 12:11:48;;;;;;;;;;;;;;;;;;4936948;29;19926;-80
2022/11/28 12:14:13;;;;;;;;;;;;;;;;;;4921382;29;19934;-81
2022/11/28 12:16:39;;;;;;;;;;;;;;;;;;4936649;29;20298;-81
2022/11/28 12:19:05;;;;;;;;;;;;;;;;;;4936793;29;19970;-81
2022/11/28 12:21:30;;;;;;;;;;;;;;;;;;4918888;29;19919;-81
2022/11/28 12:23:56;;;;;;;;;;;;;;;;;;4917702;29;19915;-80
2022/11/28 12:26:21;;;;;;;;;;;;;;;;;;4933904;29;19969;-80
2022/11/28 12:28:47;;;;;;;;;;;;;;;;;;4934501;29;19939;-80
2022/11/28 12:31:13;;;;;;;;;;;;;;;;;;4932241;29;20379;-79
2022/11/28 12:33:38;;;;;;;;;;;;;;;;;;4917295;29;19930;-79
2022/11/28 12:36:03;;;;;;;;;;;;;;;;;;4916401;29;19951;-79
2022/11/28 12:38:30;;;;;;;;;;;;;;;;;;4917915;29;19915;-79
2022/11/28 12:40:55;;;;;;;;;;;;;;;;;;4932001;29;19919;-79
2022/11/28 12:43:21;;;;;;;;;;;;;;;;;;4928029;29;20408;-80
2022/11/28 12:45:46;;;;;;;;;;;;;;;;;;4936982;29;19914;-81
2022/11/28 12:48:11;;;;;;;;;;;;;;;;;;4935443;29;20331;-81
2022/11/28 12:50:37;;;;;;;;;;;;;;;;;;4943337;29;19914;-80
2022/11/28 12:53:02;;;;;;;;;;;;;;;;;;4937187;29;19915;-80
2022/11/28 12:55:28;;;;;;;;;;;;;;;;;;4938245;29;19922;-80
2022/11/28 12:57:53;;;;;;;;;;;;;;;;;;4939133;29;19926;-79
2022/11/28 13:00:18;;;;;;;;;;;;;;;;;;4939640;29;19922;-80
2022/11/28 13:02:44;;;;;;;;;;;;;;;;;;4936263;29;19921;-81
2022/11/28 13:05:09;;;;;;;;;;;;;;;;;;4941500;29;19915;-80
2022/11/28 13:07:35;;;;;;;;;;;;;;;;;;4937566;29;20331;-80
2022/11/28 13:10:01;;;;;;;;;;;;;;;;;;4931913;29;19930;-80
2022/11/28 13:12:26;;;;;;;;;;;;;;;;;;4917224;29;20383;-81
2022/11/28 13:14:52;;;;;;;;;;;;;;;;;;4917552;29;20058;-81
2022/11/28 13:17:18;;;;;;;;;;;;;;;;;;4918845;29;19915;-80
2022/11/28 13:19:43;;;;;;;;;;;;;;;;;;4918616;29;19915;-81
2022/11/28 13:22:09;;;;;;;;;;;;;;;;;;4918480;29;19975;-80
2022/11/28 13:24:34;;;;;;;;;;;;;;;;;;4930672;29;20455;-79
2022/11/28 13:26:59;;;;;;;;;;;;;;;;;;4932719;29;19922;-80
2022/11/28 13:29:25;;;;;;;;;;;;;;;;;;4936711;29;19962;-80
2022/11/28 13:31:51;;;;;;;;;;;;;;;;;;4936456;29;20421;-80
2022/11/28 13:34:16;;;;;;;;;;;;;;;;;;4937137;29;19922;-80
2022/11/28 13:36:41;;;;;;;;;;;;;;;;;;4937907;29;20236;-80
2022/11/28 13:39:10;;;;;;;;;;;;;;;;;;4921911;29;19982;-81
2022/11/28 13:41:36;;;;;;;;;;;;;;;;;;4935307;29;20675;-80
2022/11/28 13:44:01;;;;;;;;;;;;;;;;;;4935724;29;19915;-80
2022/11/28 13:46:26;;;;;;;;;;;;;;;;;;4938863;29;20334;-80
2022/11/28 13:48:52;;;;;;;;;;;;;;;;;;4941674;29;19969;-77
2022/11/28 13:51:18;;;;;;;;;;;;;;;;;;4939733;29;19915;-79
2022/11/28 13:53:43;;;;;;;;;;;;;;;;;;4939060;29;19914;-79
2022/11/28 13:56:08;;;;;;;;;;;;;;;;;;4939925;29;19919;-79
2022/11/28 13:58:34;;;;;;;;;;;;;;;;;;4922786;29;20374;-78
2022/11/28 14:00:59;;;;;;;;;;;;;;;;;;4925298;29;19915;-79
2022/11/28 14:03:25;;;;;;;;;;;;;;;;;;4936146;29;19922;-79
2022/11/28 14:05:50;;;;;;;;;;;;;;;;;;4922759;29;19950;-77
2022/11/28 14:08:15;;;;;;;;;;;;;;;;;;4925385;29;20272;-80
2022/11/28 14:10:41;;;;;;;;;;;;;;;;;;4958192;23;20334;-81
2022/11/28 14:13:06;;;;;;;;;;;;;;;;;;4911479;29;19918;-80
2022/11/28 14:15:32;;;;;;;;;;;;;;;;;;4944897;29;19951;-84
2022/11/28 14:17:58;;;;;;;;;;;;;;;;;;4938035;29;19916;-85
2022/11/28 14:20:24;;;;;;;;;;;;;;;;;;4920832;29;19925;-87
2022/11/28 14:22:50;;;;;;;;;;;;;;;;;;4920225;29;19918;-83
2022/11/28 14:25:15;;;;;;;;;;;;;;;;;;4936886;29;20367;-82
2022/11/28 14:27:41;;;;;;;;;;;;;;;;;;4937182;29;19911;-85
2022/11/28 14:30:07;;;;;;;;;;;;;;;;;;4937653;29;19922;-83
2022/11/28 14:32:32;;;;;;;;;;;;;;;;;;4933913;29;20371;-86
2022/11/28 14:34:58;;;;;;;;;;;;;;;;;;4933509;29;19915;-85
2022/11/28 14:37:26;;;;;;;;;;;;;;;;;;4917234;29;19915;-83
2022/11/28 14:39:51;;;;;;;;;;;;;;;;;;4917562;29;20395;-82
2022/11/28 14:42:17;;;;;;;;;;;;;;;;;;4902556;29;19926;-84
2022/11/28 14:44:44;;;;;;;;;;;;;;;;;;4952416;29;19915;-82
2022/11/28 14:47:09;;;;;;;;;;;;;;;;;;4952769;29;20390;-87
2022/11/28 14:49:35;;;;;;;;;;;;;;;;;;4936909;29;19917;-85
2022/11/28 14:52:00;;;;;;;;;;;;;;;;;;4916936;29;19915;-88
2022/11/28 14:54:25;;;;;;;;;;;;;;;;;;4917164;29;20081;-87
2022/11/28 14:56:51;;;;;;;;;;;;;;;;;;4901033;29;19915;-88
2022/11/28 14:59:16;;;;;;;;;;;;;;;;;;4917665;29;19919;-84
2022/11/28 15:01:42;;;;;;;;;;;;;;;;;;4917107;29;19926;-86
2022/11/28 15:04:08;;;;;;;;;;;;;;;;;;4933830;29;20284;-83
2022/11/28 15:06:34;;;;;;;;;;;;;;;;;;4916948;29;19962;-82
2022/11/28 15:08:59;;;;;;;;;;;;;;;;;;4916788;29;19915;-85
2022/11/28 15:11:25;;;;;;;;;;;;;;;;;;4906139;29;20395;-85
2022/11/28 15:13:51;;;;;;;;;;;;;;;;;;4916508;29;19970;-84
2022/11/28 15:16:16;;;;;;;;;;;;;;;;;;4916115;29;19958;-83
2022/11/28 15:18:42;;;;;;;;;;;;;;;;;;4913859;29;20359;-85
2022/11/28 15:21:07;;;;;;;;;;;;;;;;;;4927233;29;19914;-82
2022/11/28 15:23:33;;;;;;;;;;;;;;;;;;4935330;29;20437;-86
2022/11/28 15:25:59;;;;;;;;;;;;;;;;;;4935574;29;19923;-83
2022/11/28 15:28:27;;;;;;;;;;;;;;;;;;4919655;29;20010;-84
2022/11/28 15:30:52;;;;;;;;;;;;;;;;;;4920053;29;19914;-87
2022/11/28 15:33:18;;;;;;;;;;;;;;;;;;4933871;29;19937;-84
2022/11/28 15:35:43;;;;;;;;;;;;;;;;;;4919307;29;20402;-86
2022/11/28 15:38:09;;;;;;;;;;;;;;;;;;4918309;29;19919;-84
2022/11/28 15:40:34;;;;;;;;;;;;;;;;;;4911241;29;19919;-82
2022/11/28 15:43:00;;;;;;;;;;;;;;;;;;4925410;29;20275;-82
2022/11/28 15:45:25;;;;;;;;;;;;;;;;;;4939338;29;19910;-87
2022/11/28 15:47:51;;;;;;;;;;;;;;;;;;4939008;29;20426;-84
2022/11/28 15:50:17;;;;;;;;;;;;;;;;;;4924164;29;19923;-84
2022/11/28 15:52:42;;;;;;;;;;;;;;;;;;4935999;29;19950;-87
2022/11/28 15:55:08;;;;;;;;;;;;;;;;;;4921294;29;19915;-83
2022/11/28 15:57:33;;;;;;;;;;;;;;;;;;4934071;29;20389;-84
2022/11/28 15:59:59;;;;;;;;;;;;;;;;;;4929579;29;19915;-86
2022/11/28 16:02:25;;;;;;;;;;;;;;;;;;4938798;29;19915;-84
2022/11/28 16:04:50;;;;;;;;;;;;;;;;;;4908822;29;19943;-84
2022/11/28 16:07:16;;;;;;;;;;;;;;;;;;4922543;29;19926;-85
2022/11/28 16:09:42;;;;;;;;;;;;;;;;;;4918368;29;19915;-81
2022/11/28 16:12:07;;;;;;;;;;;;;;;;;;4899944;29;20029;-82
2022/11/28 16:14:33;;;;;;;;;;;;;;;;;;4916590;29;19965;-84
2022/11/28 16:16:58;;;;;;;;;;;;;;;;;;4916909;29;19915;-83
2022/11/28 16:19:24;;;;;;;;;;;;;;;;;;4900169;29;19915;-84
2022/11/28 16:21:49;;;;;;;;;;;;;;;;;;4916022;29;20379;-84
2022/11/28 16:24:14;;;;;;;;;;;;;;;;;;4924760;29;19915;-86
2022/11/28 16:26:40;;;;;;;;;;;;;;;;;;4930033;29;19919;-83
2022/11/28 16:29:05;;;;;;;;;;;;;;;;;;4928466;29;19990;-84
2022/11/28 16:31:31;;;;;;;;;;;;;;;;;;4933933;29;19957;-82
2022/11/28 16:33:56;;;;;;;;;;;;;;;;;;4933605;29;19961;-81